Mayesville, SC (29104)

3:02 AM EDT en Octubre 25, 2014 (GMT -0400)
Sumter Municipal | Change Station
CLOSE
Current Station
Aeropuerto
Location: Sumter,
Altura: 184 ft
Estaciones meteorológicas cercanas

Alt 184 ft 34.00 °N, 80.36 °W | Updated 7 minutes ago

Muy nublado
Muy nublado
41 ° F
Sensación térmica 41 ° F
N
0
Viento Variable Viento desde Norte

Hoy
Alta -- | Baja -- ° F
--% Posibilidad de precipitaciones
Ayer
Alta -- | Baja -- ° F
Precip. -- pul
7:34 AM 6:35 PM
Luna nueva, 2% visible
Presión 30.00 pul
Visibilidad 1.0 Millas
Nubes Despejado
Punto de rocío 41 ° F
Humedad 100%
Precipitaciones 0.00 pul
Espesor de la nieve No disponible.
UV 0 de una escala de 12
Polen 3.50 de una escala de 12
Calidad del aire No disponible.
Flu Activity Sporadic
METAR KSMS 250655Z AUTO 00000KT 1SM BR CLR 05/05 A3000 RMK AO2

More Conditions Fewer Conditions

Presión 30.00 pul
Visibilidad 1.0 Millas
Nubes Despejado
Punto de rocío 41 ° F
Humedad 100%
Precipitaciones 0.00 pul
Espesor de la nieve No disponible.
UV 0 de una escala de 12
Polen 3.50 de una escala de 12
Calidad del aire No disponible.
Flu Activity Sporadic
METAR KSMS 250655Z AUTO 00000KT 1SM BR CLR 05/05 A3000 RMK AO2

More Conditions Fewer Conditions

10-Day Weather Forecast

Almanac

Astronomía

Oct. 25, 2014 Salida Puesta
Hora real 7:34 AM EDT 6:35 PM EDT
Crepúsculo civil 7:08 AM EDT 7:00 PM EDT
Crepúsculo náutico 6:39 AM EDT 7:29 PM EDT
Crepúsculo astronómico 6:10 AM EDT 7:59 PM EDT
Luna 9:08 AM EDT 8:00 PM EDT
Horas de luz 11h 52m
Horas de luz
11h 00m
Tomorrow will be 1m 57s shorter.
Luna nueva, 2% of the Moon is Illuminated
Hoy
Luna nueva
Oct 30
Cuarto creciente
Nov 6
Luna llena
Nov 14
Cuarto menguante
Nov 22
Nueva

Extremos de hoy

Máximos del estado Bajos del estado

Community

WunderPhotos

Upload Photos

1,764,789 ¡fotos cargadas!

Nearby

Calidad del aire

  Calidad del aire Índice AQ Contaminante
Ayer Buena
OZONE

Grosos de nieve

Estación Profundido Altura
No tenemos constancia de nieve nueva.

Actividad de terremotos

Ciudad Distance Mag. Tiempo y dato
No hay informes recientes de la actividad sísmica.
Magnitud mínima muestra es 2,5.

Temperaturas de aguas costeras

Lugar Temperatura
Sin partes meteorológicos de las estaciones

Estaciones meteorológicas cercanas